createdAt,value
2019-05-03T00:02:26.722Z,70.37
2019-05-03T00:04:57.635Z,70.52
2019-05-03T00:07:25.154Z,70.22
2019-05-03T00:09:52.626Z,69.80
2019-05-03T00:12:21.983Z,69.87
2019-05-03T00:14:47.586Z,70.26
2019-05-03T00:17:15.045Z,70.47
2019-05-03T00:19:42.501Z,70.22
2019-05-03T00:22:12.219Z,70.01
2019-05-03T00:24:37.596Z,69.98
2019-05-03T00:27:05.063Z,70.25
2019-05-03T00:29:32.639Z,70.09
2019-05-03T00:32:01.772Z,69.92
2019-05-03T00:34:27.441Z,70.05
2019-05-03T00:36:55.435Z,70.59
2019-05-03T00:39:24.341Z,70.71
2019-05-03T00:41:52.078Z,70.43
2019-05-03T00:44:19.323Z,70.46
2019-05-03T00:46:47.451Z,70.23
2019-05-03T00:49:14.900Z,70.29
2019-05-03T00:51:42.453Z,70.28
2019-05-03T00:54:09.826Z,70.07
2019-05-03T00:56:37.271Z,69.71
2019-05-03T00:59:04.751Z,69.51
2019-05-03T01:01:32.237Z,69.57
2019-05-03T01:04:01.651Z,69.32
2019-05-03T01:06:27.203Z,69.33
2019-05-03T01:08:54.676Z,69.45
2019-05-03T01:11:22.425Z,68.84
2019-05-03T01:13:51.985Z,68.96
2019-05-03T01:16:17.154Z,68.93
2019-05-03T01:18:44.590Z,68.92
2019-05-03T01:21:12.045Z,69.06
2019-05-03T01:23:39.538Z,69.27
2019-05-03T01:26:07.022Z,69.41
2019-05-03T01:28:34.505Z,69.15
2019-05-03T01:31:02.564Z,69.56
2019-05-03T01:33:29.569Z,70.19
2019-05-03T01:35:57.383Z,70.30
2019-05-03T01:38:24.952Z,70.69
2019-05-03T01:40:52.596Z,70.80
2019-05-03T01:43:22.142Z,70.94
2019-05-03T01:45:47.756Z,70.87
2019-05-03T01:48:17.174Z,70.84
2019-05-03T01:53:37.077Z,70.09
2019-05-03T01:56:04.585Z,70.15
2019-05-03T01:58:32.455Z,70.01
2019-05-03T02:00:59.568Z,69.72
2019-05-03T02:03:32.506Z,69.85
2019-05-03T02:05:59.390Z,69.29
2019-05-03T02:08:26.864Z,69.25
2019-05-03T02:10:54.312Z,69.28
2019-05-03T02:13:22.966Z,69.47
2019-05-03T02:15:49.271Z,69.18
2019-05-03T02:18:16.714Z,69.13
2019-05-03T02:20:44.190Z,69.50
2019-05-03T02:23:11.994Z,70.07
2019-05-03T02:25:39.163Z,70.36
2019-05-03T02:28:06.596Z,70.68
2019-05-03T02:30:34.440Z,70.58
2019-05-03T02:33:04.023Z,70.63
2019-05-03T02:35:29.420Z,70.85
2019-05-03T02:37:56.882Z,71.09
2019-05-03T02:40:24.810Z,71.28
2019-05-03T02:42:57.320Z,71.64
2019-05-03T02:45:25.905Z,71.99
2019-05-03T02:47:55.409Z,71.80
2019-05-03T02:50:20.519Z,71.70
2019-05-03T02:52:47.977Z,71.85
2019-05-03T02:55:16.254Z,71.83
2019-05-03T02:57:46.295Z,72.06
2019-05-03T03:00:11.328Z,72.21
2019-05-03T03:02:38.787Z,72.19
2019-05-03T03:05:06.241Z,71.66
2019-05-03T03:07:33.699Z,71.48
2019-05-03T03:10:01.147Z,71.95
2019-05-03T03:12:28.645Z,72.30
2019-05-03T03:14:56.158Z,72.08
2019-05-03T03:17:25.420Z,71.73
2019-05-03T03:19:51.128Z,71.86
2019-05-03T03:22:18.749Z,72.26
2019-05-03T03:24:46.208Z,72.35
2019-05-03T03:27:16.087Z,72.23
2019-05-03T03:29:41.153Z,71.86
2019-05-03T03:32:17.638Z,71.86
2019-05-03T03:34:53.343Z,71.82
2019-05-03T03:37:10.799Z,71.19
2019-05-03T03:39:37.535Z,71.16
2019-05-03T03:42:05.255Z,70.97
2019-05-03T03:44:32.487Z,70.79
2019-05-03T03:46:59.933Z,71.35
2019-05-03T03:49:27.505Z,71.36
2019-05-03T03:51:56.340Z,71.10
2019-05-03T03:54:22.535Z,71.34
2019-05-03T03:56:59.287Z,71.47
2019-05-03T03:59:20.331Z,71.71
2019-05-03T04:01:47.806Z,71.68
2019-05-03T04:04:16.098Z,71.74
2019-05-03T04:06:42.812Z,71.42
2019-05-03T04:09:10.459Z,71.33
2019-05-03T04:11:37.923Z,71.40
2019-05-03T04:14:05.536Z,71.45
2019-05-03T04:16:32.881Z,71.23
2019-05-03T04:19:00.344Z,71.20
2019-05-03T04:21:27.829Z,71.26
2019-05-03T04:23:55.786Z,71.14
2019-05-03T04:26:27.449Z,71.04
2019-05-03T04:28:50.296Z,70.77
2019-05-03T04:31:17.813Z,70.82
2019-05-03T04:33:45.284Z,70.46
2019-05-03T04:36:12.733Z,70.43
2019-05-03T04:38:40.357Z,70.42
2019-05-03T04:41:07.834Z,70.17
2019-05-03T04:43:35.719Z,70.25
2019-05-03T04:46:20.527Z,70.17
2019-05-03T04:48:48.010Z,70.09
2019-05-03T04:51:16.658Z,70.07
2019-05-03T04:53:45.459Z,70.15
2019-05-03T04:56:11.375Z,70.16
2019-05-03T04:58:38.820Z,69.84
2019-05-03T05:01:06.534Z,69.41
2019-05-03T05:03:36.209Z,69.10
2019-05-03T05:06:01.555Z,69.15
2019-05-03T05:08:29.105Z,68.98
2019-05-03T05:10:56.560Z,69.16
2019-05-03T05:13:25.010Z,69.93
2019-05-03T05:15:51.528Z,69.63
2019-05-03T05:18:26.291Z,69.24
2019-05-03T05:20:52.301Z,69.61
2019-05-03T05:23:19.857Z,69.67
2019-05-03T05:25:51.035Z,69.59
2019-05-03T05:28:19.337Z,69.32
2019-05-03T05:30:46.788Z,69.69
2019-05-03T05:33:19.834Z,69.54
2019-05-03T05:35:47.288Z,69.79
2019-05-03T05:38:15.050Z,69.39
2019-05-03T05:40:42.347Z,69.41
2019-05-03T05:43:09.790Z,69.67
2019-05-03T05:45:37.250Z,69.85
2019-05-03T05:48:05.281Z,69.79
2019-05-03T05:50:34.501Z,69.57
2019-05-03T05:53:00.368Z,69.34
2019-05-03T05:55:34.488Z,69.35
2019-05-03T05:58:12.800Z,69.76
2019-05-03T06:00:55.256Z,69.84
2019-05-03T06:03:22.666Z,70.41
2019-05-03T06:05:50.149Z,70.68
2019-05-03T06:08:20.427Z,70.00
2019-05-03T06:10:51.410Z,70.00
2019-05-03T06:13:19.040Z,70.22
2019-05-03T06:15:48.986Z,70.21
2019-05-03T06:18:20.459Z,70.38
2019-05-03T06:20:57.840Z,70.17
2019-05-03T06:23:30.328Z,69.88
2019-05-03T06:25:57.976Z,69.64
2019-05-03T06:28:26.789Z,69.50
2019-05-03T06:31:14.893Z,69.27
2019-05-03T06:33:45.148Z,68.96
2019-05-03T06:36:12.642Z,69.07
2019-05-03T06:38:42.260Z,68.71
2019-05-03T06:41:07.966Z,68.88
2019-05-03T06:43:39.623Z,69.01
2019-05-03T06:46:05.176Z,68.79
2019-05-03T06:48:31.998Z,68.70
2019-05-03T06:51:00.334Z,68.52
2019-05-03T06:53:25.832Z,68.32
2019-05-03T06:55:55.257Z,67.65
2019-05-03T06:58:31.218Z,67.36
2019-05-03T07:00:53.041Z,67.10
2019-05-03T07:03:22.481Z,66.28
2019-05-03T07:09:00.930Z,64.73
2019-05-03T07:11:28.421Z,64.50
2019-05-03T07:13:55.889Z,64.13
2019-05-03T07:16:25.273Z,63.73
2019-05-03T07:18:50.910Z,63.53
2019-05-03T07:21:18.377Z,63.39
2019-05-03T07:23:45.978Z,62.98
2019-05-03T07:26:15.069Z,62.05
2019-05-03T07:28:46.836Z,61.84
2019-05-03T07:31:08.618Z,61.82
2019-05-03T07:33:36.274Z,60.95
2019-05-03T07:36:05.318Z,59.96
2019-05-03T07:38:31.257Z,58.83
2019-05-03T07:40:58.708Z,58.88
2019-05-03T07:43:26.722Z,58.12
2019-05-03T07:45:55.218Z,57.15
2019-05-03T07:48:21.943Z,56.29
2019-05-03T07:50:49.431Z,55.71
2019-05-03T07:53:16.892Z,54.86
2019-05-03T07:55:50.020Z,54.38
2019-05-03T07:58:17.831Z,54.43
2019-05-03T08:00:45.304Z,54.06
2019-05-03T08:03:12.823Z,54.00
2019-05-03T08:05:40.274Z,53.90
2019-05-03T08:08:07.732Z,53.46
2019-05-03T08:10:35.394Z,53.32
2019-05-03T08:13:04.704Z,53.52
2019-05-03T08:15:30.878Z,54.08
2019-05-03T08:17:58.384Z,54.87
2019-05-03T08:20:25.879Z,55.26
2019-05-03T08:22:54.692Z,55.81
2019-05-03T08:25:20.875Z,55.60
2019-05-03T08:27:48.347Z,56.09
2019-05-03T08:30:15.831Z,56.67
2019-05-03T08:32:49.019Z,56.75
2019-05-03T08:35:20.157Z,56.48
2019-05-03T08:38:02.509Z,56.50
2019-05-03T08:40:29.999Z,56.41
2019-05-03T08:42:57.454Z,55.53
2019-05-03T08:45:25.588Z,55.36
2019-05-03T08:47:52.444Z,54.88
2019-05-03T08:50:21.538Z,54.68
2019-05-03T08:52:47.432Z,54.23
2019-05-03T08:55:15.903Z,54.08
2019-05-03T08:57:44.609Z,54.07
2019-05-03T09:00:14.473Z,54.91
2019-05-03T09:02:41.296Z,55.73
2019-05-03T09:05:08.984Z,55.86
2019-05-03T09:07:36.490Z,56.24
2019-05-03T09:10:12.443Z,56.56
2019-05-03T09:12:42.602Z,56.23
2019-05-03T09:15:10.069Z,55.82
2019-05-03T09:17:37.512Z,55.49
2019-05-03T09:20:05.259Z,54.99
2019-05-03T09:22:34.760Z,54.97
2019-05-03T09:24:59.950Z,54.25
2019-05-03T09:27:27.404Z,52.92
2019-05-03T09:29:55.850Z,52.49
2019-05-03T09:32:22.533Z,52.95
2019-05-03T09:34:49.980Z,53.38
2019-05-03T09:37:17.429Z,53.16
2019-05-03T09:39:44.946Z,52.00
2019-05-03T09:42:12.379Z,50.91
2019-05-03T09:44:39.837Z,49.98
2019-05-03T09:47:07.336Z,49.68
2019-05-03T09:49:34.942Z,50.12
2019-05-03T09:52:03.153Z,49.70
2019-05-03T09:54:34.768Z,49.83
2019-05-03T09:57:00.366Z,50.00
2019-05-03T09:59:27.922Z,49.76
2019-05-03T10:01:55.440Z,49.29
2019-05-03T10:04:22.913Z,49.04
2019-05-03T10:06:50.372Z,49.18
2019-05-03T10:09:17.983Z,48.83
2019-05-03T10:11:46.121Z,48.14
2019-05-03T10:14:15.328Z,46.94
2019-05-03T10:16:40.647Z,45.55
2019-05-03T10:19:08.161Z,45.24
2019-05-03T10:21:35.676Z,45.65
2019-05-03T10:24:03.174Z,45.38
2019-05-03T10:26:30.616Z,44.66
2019-05-03T10:28:58.062Z,43.70
2019-05-03T10:31:25.705Z,43.57
2019-05-03T10:33:55.741Z,42.32
2019-05-03T10:36:24.932Z,42.59
2019-05-03T10:38:51.010Z,42.56
2019-05-03T10:41:18.448Z,43.01
2019-05-03T10:43:45.922Z,43.36
2019-05-03T10:46:15.941Z,43.20
2019-05-03T10:48:42.011Z,43.23
2019-05-03T10:51:09.620Z,42.99
2019-05-03T10:53:38.104Z,43.04
2019-05-03T10:56:13.449Z,43.36
2019-05-03T10:58:38.811Z,43.51
2019-05-03T11:01:06.269Z,43.38
2019-05-03T11:03:34.329Z,42.79
2019-05-03T11:06:01.567Z,42.14
2019-05-03T11:08:29.014Z,41.25
2019-05-03T11:10:56.522Z,40.73
2019-05-03T11:13:26.302Z,39.44
2019-05-03T11:15:51.590Z,37.97
2019-05-03T11:18:19.074Z,37.03
2019-05-03T11:20:47.249Z,37.90
2019-05-03T11:23:14.651Z,38.19
2019-05-03T11:25:41.840Z,39.81
2019-05-03T11:28:11.891Z,40.92
2019-05-03T11:30:51.637Z,40.22
2019-05-03T11:33:16.858Z,39.52
2019-05-03T11:35:59.227Z,38.10
2019-05-03T11:38:26.689Z,36.75
2019-05-03T11:40:56.022Z,35.11
2019-05-03T11:43:21.234Z,33.77
2019-05-03T11:45:48.245Z,33.57
2019-05-03T11:48:15.246Z,34.24
2019-05-03T11:50:42.242Z,34.39
2019-05-03T11:53:09.714Z,34.13
2019-05-03T11:55:37.170Z,34.37
2019-05-03T11:58:05.619Z,33.92
2019-05-03T12:00:32.189Z,33.75
2019-05-03T12:03:10.358Z,33.37
2019-05-03T12:05:37.868Z,32.89
2019-05-03T12:08:05.534Z,32.39
2019-05-03T12:10:49.890Z,32.21
2019-05-03T12:13:05.066Z,32.02
2019-05-03T12:15:32.170Z,32.11
2019-05-03T12:18:05.573Z,32.26
2019-05-03T12:20:32.044Z,32.56
2019-05-03T12:22:58.769Z,32.95
2019-05-03T12:25:26.399Z,33.71
2019-05-03T12:27:53.221Z,33.98
2019-05-03T12:30:20.856Z,33.27
2019-05-03T12:32:48.309Z,32.16
2019-05-03T12:35:15.771Z,31.42
2019-05-03T12:37:42.782Z,30.86
2019-05-03T12:40:09.769Z,30.59
2019-05-03T12:42:36.874Z,29.69
2019-05-03T12:45:04.555Z,28.79
2019-05-03T12:47:30.956Z,28.62
2019-05-03T12:49:57.971Z,29.02
2019-05-03T12:52:26.760Z,29.05
2019-05-03T12:54:52.003Z,28.94
2019-05-03T12:57:19.343Z,29.33
2019-05-03T12:59:46.366Z,29.66
2019-05-03T13:02:26.167Z,30.04
2019-05-03T13:04:55.270Z,29.94
2019-05-03T13:07:34.688Z,29.94
2019-05-03T13:10:00.001Z,29.50
2019-05-03T13:12:27.020Z,28.73
2019-05-03T13:14:54.021Z,27.74
2019-05-03T13:22:01.271Z,28.11
2019-05-03T13:24:28.275Z,29.34
2019-05-03T13:26:55.297Z,29.05
2019-05-03T13:29:22.285Z,29.39
2019-05-03T13:32:00.694Z,29.17
2019-05-03T13:34:16.297Z,29.26
2019-05-03T13:36:45.485Z,28.87
2019-05-03T13:39:14.188Z,28.34
2019-05-03T13:41:37.410Z,28.11
2019-05-03T13:44:05.222Z,28.41
2019-05-03T13:46:31.686Z,29.88
2019-05-03T13:48:58.697Z,30.13
2019-05-03T13:51:25.692Z,29.91
2019-05-03T13:53:54.904Z,28.79
2019-05-03T13:56:19.754Z,28.78
2019-05-03T13:58:46.855Z,29.68
2019-05-03T14:01:14.743Z,29.96
2019-05-03T14:03:41.218Z,30.93
2019-05-03T14:06:09.380Z,30.26
2019-05-03T14:08:35.530Z,30.47
2019-05-03T14:11:02.506Z,31.30
2019-05-03T14:13:29.999Z,31.60
2019-05-03T14:15:57.034Z,31.01
2019-05-03T14:18:25.583Z,30.53
2019-05-03T14:20:55.076Z,30.38
2019-05-03T14:23:21.925Z,30.99
2019-05-03T14:25:49.385Z,31.93
2019-05-03T14:28:16.842Z,32.51
2019-05-03T14:30:45.431Z,33.18
2019-05-03T14:33:11.802Z,33.31
2019-05-03T14:35:39.371Z,33.17
2019-05-03T14:38:06.390Z,32.96
2019-05-03T14:40:33.860Z,33.71
2019-05-03T14:43:01.327Z,33.85
2019-05-03T14:45:28.779Z,33.75
2019-05-03T14:47:57.693Z,33.44
2019-05-03T14:50:25.466Z,32.66
2019-05-03T14:52:51.904Z,32.60
2019-05-03T14:55:25.090Z,32.74
2019-05-03T14:57:52.012Z,33.33
2019-05-03T15:00:25.121Z,33.89
2019-05-03T15:02:55.377Z,34.33
2019-05-03T15:05:20.449Z,35.20
2019-05-03T15:07:47.996Z,35.63
2019-05-03T15:10:15.452Z,35.93
2019-05-03T15:12:45.013Z,36.04
2019-05-03T15:15:10.459Z,36.31
2019-05-03T15:17:37.932Z,36.06
2019-05-03T15:20:05.435Z,35.56
2019-05-03T15:22:34.589Z,35.27
2019-05-03T15:25:00.067Z,34.95
2019-05-03T15:27:27.525Z,34.64
2019-05-03T15:29:55.519Z,34.08
2019-05-03T15:32:22.184Z,34.14
2019-05-03T15:34:49.665Z,34.84
2019-05-03T15:37:17.249Z,34.81
2019-05-03T15:39:45.197Z,35.30
2019-05-03T15:42:14.508Z,35.75
2019-05-03T15:44:45.481Z,36.14
2019-05-03T15:47:18.804Z,36.88
2019-05-03T15:49:46.329Z,37.30
2019-05-03T15:52:15.263Z,37.07
2019-05-03T15:54:41.301Z,37.24
2019-05-03T15:57:08.867Z,37.96
2019-05-03T15:59:36.375Z,37.83
2019-05-03T16:02:04.683Z,37.79
2019-05-03T16:04:32.823Z,37.96
2019-05-03T16:07:00.318Z,38.03
2019-05-03T16:09:27.848Z,37.79
2019-05-03T16:11:55.617Z,37.95
2019-05-03T16:14:24.295Z,38.39
2019-05-03T16:16:50.379Z,39.07
2019-05-03T16:19:18.003Z,39.01
2019-05-03T16:21:45.500Z,38.98
2019-05-03T16:24:12.994Z,39.00
2019-05-03T16:26:46.995Z,39.21
2019-05-03T16:29:15.033Z,39.20
2019-05-03T16:31:40.927Z,39.56
2019-05-03T16:34:08.435Z,40.00
2019-05-03T16:36:36.915Z,40.22
2019-05-03T16:39:04.756Z,40.26
2019-05-03T16:41:30.899Z,40.84
2019-05-03T16:43:58.375Z,42.12
2019-05-03T16:46:26.586Z,43.14
2019-05-03T16:48:54.035Z,43.43
2019-05-03T16:51:21.477Z,43.55
2019-05-03T16:53:49.057Z,43.78
2019-05-03T16:56:17.114Z,44.30
2019-05-03T16:58:44.712Z,44.23
2019-05-03T17:01:13.578Z,44.59
2019-05-03T17:03:41.382Z,44.65
2019-05-03T17:06:07.594Z,44.63
2019-05-03T17:11:27.296Z,44.17
2019-05-03T17:13:55.062Z,44.28
2019-05-03T17:16:22.266Z,44.47
2019-05-03T17:18:49.709Z,44.66
2019-05-03T17:21:17.157Z,44.77
2019-05-03T17:23:44.711Z,44.86
2019-05-03T17:26:12.327Z,44.83
2019-05-03T17:28:39.784Z,44.80
2019-05-03T17:31:07.270Z,44.92
2019-05-03T17:33:34.960Z,45.17
2019-05-03T17:36:02.366Z,45.51
2019-05-03T17:38:29.938Z,45.83
2019-05-03T17:41:08.984Z,45.90
2019-05-03T17:43:38.870Z,46.21
2019-05-03T17:46:06.329Z,46.46
2019-05-03T17:48:34.867Z,46.69
2019-05-03T17:51:01.406Z,46.77
2019-05-03T17:56:24.433Z,46.55
2019-05-03T17:58:55.020Z,46.72
2019-05-03T18:01:21.009Z,47.09
2019-05-03T18:04:04.004Z,47.39
2019-05-03T18:09:16.167Z,47.73
2019-05-03T18:14:35.937Z,46.76
2019-05-03T18:17:05.533Z,46.82
2019-05-03T18:19:30.999Z,46.98
2019-05-03T18:21:58.459Z,47.13
2019-05-03T18:24:25.908Z,47.37
2019-05-03T18:26:53.386Z,47.25
2019-05-03T18:29:20.830Z,47.31
2019-05-03T18:31:48.304Z,47.87
2019-05-03T18:34:20.027Z,47.93
2019-05-03T18:36:45.035Z,47.97
2019-05-03T18:39:10.912Z,48.20
2019-05-03T18:41:38.468Z,48.11
2019-05-03T18:44:08.928Z,48.16
2019-05-03T18:46:51.381Z,48.68
2019-05-03T18:49:18.881Z,48.91
2019-05-03T18:51:46.329Z,48.94
2019-05-03T18:54:15.504Z,48.95
2019-05-03T18:56:41.427Z,49.03
2019-05-03T18:59:08.905Z,49.55
2019-05-03T19:01:36.404Z,49.79
2019-05-03T19:04:06.760Z,50.02
2019-05-03T19:06:34.806Z,50.41
2019-05-03T19:11:58.647Z,51.07
2019-05-03T19:14:26.124Z,51.28
2019-05-03T19:16:54.552Z,51.83
2019-05-03T19:19:21.537Z,52.44
2019-05-03T19:21:49.023Z,52.67
2019-05-03T19:24:16.518Z,52.98
2019-05-03T19:26:45.081Z,53.12
2019-05-03T19:29:11.593Z,53.31
2019-05-03T19:31:39.078Z,53.63
2019-05-03T19:34:06.564Z,53.96
2019-05-03T19:36:34.827Z,54.15
2019-05-03T19:39:01.605Z,54.61
2019-05-03T19:41:29.051Z,54.89
2019-05-03T19:43:56.502Z,55.10
2019-05-03T19:46:24.859Z,55.37
2019-05-03T19:48:51.467Z,55.74
2019-05-03T19:51:18.953Z,56.23
2019-05-03T19:53:48.265Z,56.56
2019-05-03T19:56:15.730Z,56.92
2019-05-03T19:58:44.192Z,57.39
2019-05-03T20:04:08.771Z,58.29
2019-05-03T20:06:39.169Z,58.09
2019-05-03T20:09:10.386Z,58.31
2019-05-03T20:11:38.027Z,58.66
2019-05-03T20:14:05.527Z,59.02
2019-05-03T20:16:34.682Z,59.43
2019-05-03T20:19:00.490Z,59.44
2019-05-03T20:21:27.940Z,59.67
2019-05-03T20:23:55.622Z,59.68
2019-05-03T20:26:25.160Z,59.54
2019-05-03T20:28:50.495Z,59.49
2019-05-03T20:31:17.981Z,59.22
2019-05-03T20:33:45.833Z,58.83
2019-05-03T20:36:12.927Z,59.00
2019-05-03T20:38:40.398Z,59.08
2019-05-03T20:41:07.989Z,59.01
2019-05-03T20:46:35.949Z,59.12
2019-05-03T20:49:04.415Z,59.25
2019-05-03T20:51:31.034Z,59.64
2019-05-03T20:53:58.558Z,59.91
2019-05-03T20:56:26.033Z,60.11
2019-05-03T20:58:55.001Z,60.40
2019-05-03T21:01:21.025Z,60.76
2019-05-03T21:03:48.491Z,59.67
2019-05-03T21:06:15.969Z,58.58
2019-05-03T21:08:52.952Z,57.53
2019-05-03T21:11:11.003Z,56.26
2019-05-03T21:13:42.038Z,55.49
2019-05-03T21:16:06.895Z,54.82
2019-05-03T21:18:34.546Z,54.57
2019-05-03T21:21:06.377Z,54.02
2019-05-03T21:23:35.707Z,53.53
2019-05-03T21:26:12.084Z,54.74
2019-05-03T21:28:31.273Z,55.68
2019-05-03T21:30:58.748Z,56.20
2019-05-03T21:33:26.222Z,56.65
2019-05-03T21:35:55.564Z,56.64
2019-05-03T21:38:21.254Z,56.05
2019-05-03T21:40:48.744Z,55.61
2019-05-03T21:43:16.183Z,55.11
2019-05-03T21:45:45.363Z,54.14
2019-05-03T21:48:14.464Z,53.93
2019-05-03T21:50:40.101Z,53.46
2019-05-03T21:53:07.559Z,53.22
2019-05-03T21:55:35.491Z,53.35
2019-05-03T21:58:04.243Z,52.95
2019-05-03T22:03:22.418Z,51.58
2019-05-03T22:05:55.087Z,51.74
2019-05-03T22:08:17.409Z,52.19
2019-05-03T22:10:45.126Z,52.33
2019-05-03T22:13:12.459Z,52.35
2019-05-03T22:15:41.596Z,52.11
2019-05-03T22:18:15.222Z,51.76
2019-05-03T22:20:45.373Z,51.64
2019-05-03T22:23:16.791Z,51.68
2019-05-03T22:25:44.282Z,52.07
2019-05-03T22:28:11.878Z,52.48
2019-05-03T22:30:39.321Z,52.85
2019-05-03T22:33:06.766Z,53.15
2019-05-03T22:35:35.300Z,53.63
2019-05-03T22:38:04.039Z,54.61
2019-05-03T22:40:29.203Z,55.02
2019-05-03T22:42:56.684Z,55.31
2019-05-03T22:45:24.295Z,55.25
2019-05-03T22:47:51.834Z,55.25
2019-05-03T22:50:19.290Z,55.33
2019-05-03T22:52:46.823Z,55.50
2019-05-03T22:55:15.292Z,55.77
2019-05-03T22:57:41.812Z,55.89
2019-05-03T23:00:09.272Z,55.83
2019-05-03T23:02:36.780Z,55.80
2019-05-03T23:05:04.682Z,55.71
2019-05-03T23:07:31.723Z,55.84
2019-05-03T23:09:59.200Z,55.61
2019-05-03T23:12:26.702Z,55.55
2019-05-03T23:14:55.125Z,55.49
2019-05-03T23:17:21.663Z,55.39
2019-05-03T23:19:49.138Z,55.80
2019-05-03T23:22:31.114Z,55.87
2019-05-03T23:24:58.686Z,56.03
2019-05-03T23:27:26.131Z,56.34
2019-05-03T23:29:54.510Z,56.70
2019-05-03T23:32:21.124Z,56.89
2019-05-03T23:34:48.587Z,57.08
2019-05-03T23:37:16.168Z,57.32
2019-05-03T23:39:44.602Z,57.49
2019-05-03T23:42:11.212Z,57.68
2019-05-03T23:44:38.662Z,57.98
2019-05-03T23:47:10.110Z,58.59
2019-05-03T23:49:37.628Z,59.42
2019-05-03T23:54:57.245Z,60.69
2019-05-03T23:57:25.150Z,60.53
2019-05-03T23:59:54.335Z,60.95
